sensor_id;sensor_type;location;lat;lon;timestamp;P1;durP1;ratioP1;P2;durP2;ratioP2
59338;SDS011;45117;50.960;5.500;2023-04-15T13:29:41;2.05;;;1.85;;
59338;SDS011;45117;50.960;5.500;2023-04-15T13:32:08;10.43;;;9.43;;
59338;SDS011;45117;50.960;5.500;2023-04-15T13:34:34;5.85;;;2.08;;
59338;SDS011;45117;50.960;5.500;2023-04-15T13:37:05;4.75;;;4.32;;
59338;SDS011;45117;50.960;5.500;2023-04-15T13:39:31;4.43;;;2.20;;
59338;SDS011;45117;50.960;5.500;2023-04-15T13:41:58;3.42;;;2.80;;
59338;SDS011;45117;50.960;5.500;2023-04-15T13:44:24;4.10;;;2.08;;
59338;SDS011;45117;50.960;5.500;2023-04-15T13:46:52;3.97;;;2.83;;
59338;SDS011;45117;50.960;5.500;2023-04-15T13:49:19;3.10;;;2.80;;
59338;SDS011;45117;50.960;5.500;2023-04-15T13:51:46;2.13;;;1.75;;
59338;SDS011;45117;50.960;5.500;2023-04-15T13:54:12;4.05;;;2.10;;
59338;SDS011;45117;50.960;5.500;2023-04-15T13:56:39;3.08;;;2.53;;
59338;SDS011;45117;50.960;5.500;2023-04-15T13:59:05;3.63;;;2.90;;
59338;SDS011;45117;50.960;5.500;2023-04-15T14:01:33;5.25;;;1.60;;
59338;SDS011;45117;50.960;5.500;2023-04-15T14:04:01;2.35;;;1.60;;
59338;SDS011;45117;50.960;5.500;2023-04-15T14:06:27;2.78;;;2.00;;
59338;SDS011;45117;50.960;5.500;2023-04-15T14:08:56;6.03;;;2.00;;
59338;SDS011;45117;50.960;5.500;2023-04-15T14:11:22;2.13;;;1.70;;
59338;SDS011;45117;50.960;5.500;2023-04-15T14:13:49;2.83;;;1.58;;
59338;SDS011;45117;50.960;5.500;2023-04-15T14:16:15;3.10;;;1.50;;
59338;SDS011;45117;50.960;5.500;2023-04-15T14:18:42;3.20;;;2.10;;
59338;SDS011;45117;50.960;5.500;2023-04-15T14:21:11;3.47;;;2.05;;
59338;SDS011;45117;50.960;5.500;2023-04-15T14:23:37;4.13;;;1.92;;
59338;SDS011;45117;50.960;5.500;2023-04-15T14:26:04;2.47;;;1.75;;
59338;SDS011;45117;50.960;5.500;2023-04-15T14:28:30;4.07;;;2.10;;
59338;SDS011;45117;50.960;5.500;2023-04-15T14:30:57;2.15;;;1.80;;
59338;SDS011;45117;50.960;5.500;2023-04-15T14:33:23;4.18;;;1.80;;
59338;SDS011;45117;50.960;5.500;2023-04-15T14:35:50;2.40;;;1.63;;
59338;SDS011;45117;50.960;5.500;2023-04-15T14:38:18;3.50;;;2.30;;
59338;SDS011;45117;50.960;5.500;2023-04-15T14:40:46;2.50;;;1.80;;
59338;SDS011;45117;50.960;5.500;2023-04-15T14:43:13;2.78;;;1.75;;
59338;SDS011;45117;50.960;5.500;2023-04-15T14:45:39;1.95;;;1.50;;
59338;SDS011;45117;50.960;5.500;2023-04-15T14:48:06;2.80;;;1.50;;
59338;SDS011;45117;50.960;5.500;2023-04-15T14:50:33;2.90;;;1.50;;
59338;SDS011;45117;50.960;5.500;2023-04-15T14:53:00;2.55;;;1.60;;
59338;SDS011;45117;50.960;5.500;2023-04-15T14:55:28;2.85;;;1.60;;
59338;SDS011;45117;50.960;5.500;2023-04-15T14:57:55;1.92;;;1.40;;
59338;SDS011;45117;50.960;5.500;2023-04-15T15:00:21;2.92;;;1.40;;
59338;SDS011;45117;50.960;5.500;2023-04-15T15:02:48;2.30;;;1.40;;
59338;SDS011;45117;50.960;5.500;2023-04-15T15:05:14;3.22;;;1.27;;
59338;SDS011;45117;50.960;5.500;2023-04-15T15:07:41;2.47;;;1.00;;
59338;SDS011;45117;50.960;5.500;2023-04-15T15:10:07;3.40;;;1.20;;
59338;SDS011;45117;50.960;5.500;2023-04-15T15:12:35;1.30;;;1.20;;
59338;SDS011;45117;50.960;5.500;2023-04-15T15:15:02;2.60;;;1.40;;
59338;SDS011;45117;50.960;5.500;2023-04-15T15:17:29;1.65;;;1.00;;
59338;SDS011;45117;50.960;5.500;2023-04-15T15:19:56;5.40;;;1.63;;
59338;SDS011;45117;50.960;5.500;2023-04-15T15:22:22;1.67;;;1.08;;
59338;SDS011;45117;50.960;5.500;2023-04-15T15:24:49;1.63;;;1.30;;
59338;SDS011;45117;50.960;5.500;2023-04-15T15:27:17;2.42;;;1.35;;
59338;SDS011;45117;50.960;5.500;2023-04-15T15:29:45;2.38;;;1.33;;
59338;SDS011;45117;50.960;5.500;2023-04-15T15:32:13;1.90;;;1.38;;
59338;SDS011;45117;50.960;5.500;2023-04-15T15:34:39;2.05;;;1.20;;
59338;SDS011;45117;50.960;5.500;2023-04-15T15:37:06;2.22;;;1.23;;
59338;SDS011;45117;50.960;5.500;2023-04-15T15:39:33;2.72;;;1.30;;
59338;SDS011;45117;50.960;5.500;2023-04-15T15:42:00;2.03;;;1.50;;
59338;SDS011;45117;50.960;5.500;2023-04-15T15:44:26;2.67;;;1.63;;
59338;SDS011;45117;50.960;5.500;2023-04-15T15:46:54;2.03;;;1.25;;
59338;SDS011;45117;50.960;5.500;2023-04-15T15:49:21;3.10;;;1.70;;
59338;SDS011;45117;50.960;5.500;2023-04-15T15:51:49;3.58;;;1.45;;
59338;SDS011;45117;50.960;5.500;2023-04-15T15:54:16;3.47;;;1.10;;
59338;SDS011;45117;50.960;5.500;2023-04-15T15:56:42;1.83;;;1.10;;
59338;SDS011;45117;50.960;5.500;2023-04-15T15:59:09;2.25;;;1.25;;
59338;SDS011;45117;50.960;5.500;2023-04-15T16:01:35;2.47;;;1.30;;
59338;SDS011;45117;50.960;5.500;2023-04-15T16:04:03;3.80;;;1.40;;
59338;SDS011;45117;50.960;5.500;2023-04-15T16:06:30;1.10;;;0.90;;
59338;SDS011;45117;50.960;5.500;2023-04-15T16:08:57;2.15;;;1.10;;
59338;SDS011;45117;50.960;5.500;2023-04-15T16:11:23;2.63;;;0.90;;
59338;SDS011;45117;50.960;5.500;2023-04-15T16:13:51;1.63;;;0.80;;
59338;SDS011;45117;50.960;5.500;2023-04-15T16:16:18;2.10;;;0.90;;
59338;SDS011;45117;50.960;5.500;2023-04-15T16:18:44;2.67;;;1.00;;
59338;SDS011;45117;50.960;5.500;2023-04-15T16:21:12;3.38;;;1.10;;
59338;SDS011;45117;50.960;5.500;2023-04-15T16:23:39;1.67;;;1.00;;
59338;SDS011;45117;50.960;5.500;2023-04-15T16:26:06;1.60;;;1.00;;
59338;SDS011;45117;50.960;5.500;2023-04-15T16:28:32;4.95;;;0.90;;
59338;SDS011;45117;50.960;5.500;2023-04-15T16:30:59;1.23;;;0.90;;
59338;SDS011;45117;50.960;5.500;2023-04-15T16:33:25;1.85;;;1.10;;
59338;SDS011;45117;50.960;5.500;2023-04-15T16:35:52;2.13;;;0.90;;
59338;SDS011;45117;50.960;5.500;2023-04-15T16:38:20;2.50;;;1.00;;
59338;SDS011;45117;50.960;5.500;2023-04-15T16:40:46;2.30;;;0.95;;
59338;SDS011;45117;50.960;5.500;2023-04-15T16:43:13;2.28;;;1.00;;
59338;SDS011;45117;50.960;5.500;2023-04-15T16:45:39;1.35;;;0.70;;
59338;SDS011;45117;50.960;5.500;2023-04-15T16:48:08;3.28;;;1.42;;
59338;SDS011;45117;50.960;5.500;2023-04-15T16:50:35;3.42;;;1.13;;
59338;SDS011;45117;50.960;5.500;2023-04-15T16:53:01;1.75;;;0.90;;
59338;SDS011;45117;50.960;5.500;2023-04-15T16:55:29;3.13;;;0.90;;
59338;SDS011;45117;50.960;5.500;2023-04-15T16:57:56;2.53;;;0.90;;
59338;SDS011;45117;50.960;5.500;2023-04-15T17:00:22;2.38;;;0.90;;
59338;SDS011;45117;50.960;5.500;2023-04-15T17:02:49;2.15;;;0.85;;
59338;SDS011;45117;50.960;5.500;2023-04-15T17:05:15;2.38;;;1.00;;
59338;SDS011;45117;50.960;5.500;2023-04-15T17:07:42;2.72;;;1.13;;
59338;SDS011;45117;50.960;5.500;2023-04-15T17:10:09;2.08;;;0.90;;
59338;SDS011;45117;50.960;5.500;2023-04-15T17:12:39;2.38;;;1.00;;
59338;SDS011;45117;50.960;5.500;2023-04-15T17:15:06;2.67;;;0.90;;
59338;SDS011;45117;50.960;5.500;2023-04-15T17:17:35;2.22;;;1.10;;
59338;SDS011;45117;50.960;5.500;2023-04-15T17:20:01;2.53;;;1.10;;
59338;SDS011;45117;50.960;5.500;2023-04-15T17:22:28;3.25;;;0.80;;
59338;SDS011;45117;50.960;5.500;2023-04-15T17:24:55;1.08;;;0.90;;
59338;SDS011;45117;50.960;5.500;2023-04-15T17:27:21;2.13;;;0.90;;
59338;SDS011;45117;50.960;5.500;2023-04-15T17:29:50;3.58;;;0.90;;
59338;SDS011;45117;50.960;5.500;2023-04-15T17:32:16;2.70;;;0.90;;
59338;SDS011;45117;50.960;5.500;2023-04-15T17:34:43;2.45;;;0.95;;
59338;SDS011;45117;50.960;5.500;2023-04-15T17:37:09;5.82;;;1.10;;
59338;SDS011;45117;50.960;5.500;2023-04-15T17:39:36;1.30;;;0.82;;
59338;SDS011;45117;50.960;5.500;2023-04-15T17:42:02;2.53;;;1.00;;
59338;SDS011;45117;50.960;5.500;2023-04-15T17:44:29;3.58;;;1.00;;
59338;SDS011;45117;50.960;5.500;2023-04-15T17:46:56;2.03;;;0.90;;
59338;SDS011;45117;50.960;5.500;2023-04-15T17:49:23;2.33;;;1.00;;
59338;SDS011;45117;50.960;5.500;2023-04-15T17:51:50;1.88;;;1.02;;
59338;SDS011;45117;50.960;5.500;2023-04-15T17:54:18;3.05;;;1.20;;
59338;SDS011;45117;50.960;5.500;2023-04-15T17:56:45;4.10;;;1.10;;
59338;SDS011;45117;50.960;5.500;2023-04-15T17:59:13;4.07;;;1.40;;
59338;SDS011;45117;50.960;5.500;2023-04-15T18:01:39;4.70;;;1.30;;
59338;SDS011;45117;50.960;5.500;2023-04-15T18:04:07;4.75;;;1.30;;
59338;SDS011;45117;50.960;5.500;2023-04-15T18:06:34;3.03;;;1.10;;
59338;SDS011;45117;50.960;5.500;2023-04-15T18:09:00;3.58;;;1.17;;
59338;SDS011;45117;50.960;5.500;2023-04-15T18:11:27;3.65;;;1.13;;
59338;SDS011;45117;50.960;5.500;2023-04-15T18:13:53;3.13;;;1.20;;
59338;SDS011;45117;50.960;5.500;2023-04-15T18:16:20;2.65;;;1.17;;
59338;SDS011;45117;50.960;5.500;2023-04-15T18:18:47;4.80;;;1.50;;
59338;SDS011;45117;50.960;5.500;2023-04-15T18:21:14;4.35;;;1.40;;
59338;SDS011;45117;50.960;5.500;2023-04-15T18:23:41;2.78;;;1.00;;
59338;SDS011;45117;50.960;5.500;2023-04-15T18:26:07;5.47;;;1.20;;
59338;SDS011;45117;50.960;5.500;2023-04-15T18:28:34;4.40;;;1.48;;
59338;SDS011;45117;50.960;5.500;2023-04-15T18:31:01;5.43;;;1.33;;
59338;SDS011;45117;50.960;5.500;2023-04-15T18:33:28;2.72;;;1.10;;
59338;SDS011;45117;50.960;5.500;2023-04-15T18:35:55;4.93;;;1.10;;
59338;SDS011;45117;50.960;5.500;2023-04-15T18:38:23;3.30;;;1.17;;
59338;SDS011;45117;50.960;5.500;2023-04-15T18:40:49;3.88;;;1.30;;
59338;SDS011;45117;50.960;5.500;2023-04-15T18:43:16;3.60;;;1.00;;
59338;SDS011;45117;50.960;5.500;2023-04-15T18:45:42;5.05;;;0.98;;
59338;SDS011;45117;50.960;5.500;2023-04-15T18:48:09;4.55;;;1.10;;
59338;SDS011;45117;50.960;5.500;2023-04-15T18:50:36;3.78;;;1.50;;
59338;SDS011;45117;50.960;5.500;2023-04-15T18:53:02;6.95;;;1.83;;
59338;SDS011;45117;50.960;5.500;2023-04-15T18:55:30;3.38;;;1.15;;
59338;SDS011;45117;50.960;5.500;2023-04-15T18:57:57;3.55;;;1.30;;
59338;SDS011;45117;50.960;5.500;2023-04-15T19:00:23;4.90;;;1.58;;
59338;SDS011;45117;50.960;5.500;2023-04-15T19:02:51;6.60;;;1.70;;
59338;SDS011;45117;50.960;5.500;2023-04-15T19:05:17;6.55;;;2.20;;
59338;SDS011;45117;50.960;5.500;2023-04-15T19:07:44;5.20;;;1.90;;
59338;SDS011;45117;50.960;5.500;2023-04-15T19:10:10;5.03;;;1.50;;
59338;SDS011;45117;50.960;5.500;2023-04-15T19:12:38;4.47;;;1.67;;
59338;SDS011;45117;50.960;5.500;2023-04-15T19:15:05;5.38;;;1.38;;
59338;SDS011;45117;50.960;5.500;2023-04-15T19:17:33;5.05;;;1.10;;
59338;SDS011;45117;50.960;5.500;2023-04-15T19:19:59;4.43;;;1.30;;
59338;SDS011;45117;50.960;5.500;2023-04-15T19:22:27;5.07;;;1.30;;
59338;SDS011;45117;50.960;5.500;2023-04-15T19:24:54;4.72;;;1.40;;
59338;SDS011;45117;50.960;5.500;2023-04-15T19:27:21;4.25;;;1.17;;
59338;SDS011;45117;50.960;5.500;2023-04-15T19:29:50;4.40;;;1.38;;
59338;SDS011;45117;50.960;5.500;2023-04-15T19:32:16;6.45;;;1.40;;
59338;SDS011;45117;50.960;5.500;2023-04-15T19:34:43;5.25;;;1.50;;
59338;SDS011;45117;50.960;5.500;2023-04-15T19:37:09;2.38;;;1.02;;
59338;SDS011;45117;50.960;5.500;2023-04-15T19:39:36;7.32;;;1.50;;
59338;SDS011;45117;50.960;5.500;2023-04-15T19:42:03;4.82;;;2.72;;
59338;SDS011;45117;50.960;5.500;2023-04-15T19:44:29;3.60;;;1.20;;
59338;SDS011;45117;50.960;5.500;2023-04-15T19:46:57;5.20;;;1.20;;
59338;SDS011;45117;50.960;5.500;2023-04-15T19:49:24;4.97;;;1.50;;
59338;SDS011;45117;50.960;5.500;2023-04-15T19:51:50;4.85;;;1.30;;
59338;SDS011;45117;50.960;5.500;2023-04-15T19:54:17;7.07;;;1.70;;
59338;SDS011;45117;50.960;5.500;2023-04-15T19:56:43;4.78;;;1.30;;
59338;SDS011;45117;50.960;5.500;2023-04-15T19:59:10;5.32;;;1.60;;
59338;SDS011;45117;50.960;5.500;2023-04-15T20:01:37;4.65;;;1.30;;
59338;SDS011;45117;50.960;5.500;2023-04-15T20:04:05;3.42;;;1.15;;
59338;SDS011;45117;50.960;5.500;2023-04-15T20:06:32;5.72;;;2.65;;
59338;SDS011;45117;50.960;5.500;2023-04-15T20:08:58;6.07;;;1.73;;
59338;SDS011;45117;50.960;5.500;2023-04-15T20:11:25;7.65;;;2.58;;
59338;SDS011;45117;50.960;5.500;2023-04-15T20:13:53;8.02;;;1.92;;
59338;SDS011;45117;50.960;5.500;2023-04-15T20:16:20;5.15;;;1.65;;
59338;SDS011;45117;50.960;5.500;2023-04-15T20:18:46;6.60;;;1.45;;
59338;SDS011;45117;50.960;5.500;2023-04-15T20:21:14;6.65;;;2.00;;
59338;SDS011;45117;50.960;5.500;2023-04-15T20:23:41;9.18;;;2.10;;
59338;SDS011;45117;50.960;5.500;2023-04-15T20:26:07;9.45;;;2.30;;
59338;SDS011;45117;50.960;5.500;2023-04-15T20:28:34;5.43;;;2.00;;
59338;SDS011;45117;50.960;5.500;2023-04-15T20:31:00;8.20;;;1.63;;
59338;SDS011;45117;50.960;5.500;2023-04-15T20:33:27;7.82;;;1.40;;
59338;SDS011;45117;50.960;5.500;2023-04-15T20:35:53;8.75;;;1.48;;
59338;SDS011;45117;50.960;5.500;2023-04-15T20:38:21;6.28;;;1.20;;
59338;SDS011;45117;50.960;5.500;2023-04-15T20:40:48;3.78;;;1.27;;
59338;SDS011;45117;50.960;5.500;2023-04-15T20:43:15;7.88;;;1.50;;
59338;SDS011;45117;50.960;5.500;2023-04-15T20:45:41;6.65;;;2.83;;
59338;SDS011;45117;50.960;5.500;2023-04-15T20:48:08;5.43;;;1.60;;
59338;SDS011;45117;50.960;5.500;2023-04-15T20:50:34;8.20;;;1.30;;
59338;SDS011;45117;50.960;5.500;2023-04-15T20:53:01;6.65;;;1.40;;
59338;SDS011;45117;50.960;5.500;2023-04-15T20:55:30;8.20;;;1.77;;
59338;SDS011;45117;50.960;5.500;2023-04-15T20:57:57;11.00;;;1.48;;
59338;SDS011;45117;50.960;5.500;2023-04-15T21:00:24;6.88;;;1.50;;
59338;SDS011;45117;50.960;5.500;2023-04-15T21:02:50;4.95;;;1.20;;
59338;SDS011;45117;50.960;5.500;2023-04-15T21:05:17;4.43;;;1.20;;
59338;SDS011;45117;50.960;5.500;2023-04-15T21:07:43;6.60;;;1.30;;
59338;SDS011;45117;50.960;5.500;2023-04-15T21:10:10;5.72;;;1.50;;
59338;SDS011;45117;50.960;5.500;2023-04-15T21:12:38;7.13;;;1.25;;
59338;SDS011;45117;50.960;5.500;2023-04-15T21:15:05;7.82;;;1.45;;
59338;SDS011;45117;50.960;5.500;2023-04-15T21:17:32;7.82;;;1.73;;
59338;SDS011;45117;50.960;5.500;2023-04-15T21:19:59;7.53;;;1.60;;
59338;SDS011;45117;50.960;5.500;2023-04-15T21:22:26;5.03;;;1.20;;
59338;SDS011;45117;50.960;5.500;2023-04-15T21:24:52;6.32;;;1.45;;
59338;SDS011;45117;50.960;5.500;2023-04-15T21:27:19;5.40;;;1.50;;
59338;SDS011;45117;50.960;5.500;2023-04-15T21:29:47;9.52;;;1.80;;
59338;SDS011;45117;50.960;5.500;2023-04-15T21:32:13;9.00;;;1.73;;
59338;SDS011;45117;50.960;5.500;2023-04-15T21:34:40;9.27;;;1.77;;
59338;SDS011;45117;50.960;5.500;2023-04-15T21:37:07;7.82;;;1.63;;
59338;SDS011;45117;50.960;5.500;2023-04-15T21:39:33;6.97;;;2.08;;
59338;SDS011;45117;50.960;5.500;2023-04-15T21:42:00;6.38;;;1.52;;
59338;SDS011;45117;50.960;5.500;2023-04-15T21:44:26;10.35;;;2.20;;
59338;SDS011;45117;50.960;5.500;2023-04-15T21:46:54;4.70;;;1.63;;
59338;SDS011;45117;50.960;5.500;2023-04-15T21:49:21;7.70;;;1.90;;
59338;SDS011;45117;50.960;5.500;2023-04-15T21:51:47;8.63;;;1.83;;
59338;SDS011;45117;50.960;5.500;2023-04-15T21:54:14;9.23;;;2.40;;
59338;SDS011;45117;50.960;5.500;2023-04-15T21:56:40;6.65;;;1.73;;
59338;SDS011;45117;50.960;5.500;2023-04-15T21:59:07;8.75;;;1.70;;
59338;SDS011;45117;50.960;5.500;2023-04-15T22:01:34;11.90;;;1.90;;
59338;SDS011;45117;50.960;5.500;2023-04-15T22:04:02;9.55;;;2.03;;
59338;SDS011;45117;50.960;5.500;2023-04-15T22:06:29;10.23;;;2.00;;
59338;SDS011;45117;50.960;5.500;2023-04-15T22:08:56;9.73;;;2.05;;
59338;SDS011;45117;50.960;5.500;2023-04-15T22:11:22;7.55;;;2.10;;
59338;SDS011;45117;50.960;5.500;2023-04-15T22:13:51;8.32;;;2.05;;
59338;SDS011;45117;50.960;5.500;2023-04-15T22:16:17;5.47;;;1.98;;
59338;SDS011;45117;50.960;5.500;2023-04-15T22:18:44;7.13;;;1.85;;
59338;SDS011;45117;50.960;5.500;2023-04-15T22:21:12;7.05;;;2.13;;
59338;SDS011;45117;50.960;5.500;2023-04-15T22:23:39;9.88;;;2.35;;
59338;SDS011;45117;50.960;5.500;2023-04-15T22:26:05;8.63;;;2.30;;
59338;SDS011;45117;50.960;5.500;2023-04-15T22:28:32;6.63;;;1.85;;
59338;SDS011;45117;50.960;5.500;2023-04-15T22:30:58;9.55;;;2.30;;
59338;SDS011;45117;50.960;5.500;2023-04-15T22:33:28;7.35;;;2.13;;
59338;SDS011;45117;50.960;5.500;2023-04-15T22:35:55;7.82;;;1.83;;
59338;SDS011;45117;50.960;5.500;2023-04-15T22:38:23;9.90;;;2.15;;
59338;SDS011;45117;50.960;5.500;2023-04-15T22:40:50;4.45;;;1.88;;
59338;SDS011;45117;50.960;5.500;2023-04-15T22:43:17;5.15;;;1.88;;
59338;SDS011;45117;50.960;5.500;2023-04-15T22:45:47;6.43;;;1.90;;
59338;SDS011;45117;50.960;5.500;2023-04-15T22:48:14;7.72;;;1.92;;
59338;SDS011;45117;50.960;5.500;2023-04-15T22:50:41;5.13;;;1.63;;
59338;SDS011;45117;50.960;5.500;2023-04-15T22:53:07;6.63;;;1.63;;
59338;SDS011;45117;50.960;5.500;2023-04-15T22:55:35;5.57;;;1.98;;
59338;SDS011;45117;50.960;5.500;2023-04-15T22:58:02;5.88;;;1.80;;
59338;SDS011;45117;50.960;5.500;2023-04-15T23:00:28;12.35;;;1.92;;
59338;SDS011;45117;50.960;5.500;2023-04-15T23:02:55;6.03;;;2.20;;
59338;SDS011;45117;50.960;5.500;2023-04-15T23:05:21;6.10;;;1.85;;
59338;SDS011;45117;50.960;5.500;2023-04-15T23:07:48;7.10;;;1.80;;
59338;SDS011;45117;50.960;5.500;2023-04-15T23:10:14;7.65;;;2.10;;
59338;SDS011;45117;50.960;5.500;2023-04-15T23:12:42;7.30;;;2.30;;
59338;SDS011;45117;50.960;5.500;2023-04-15T23:15:09;7.80;;;2.03;;
59338;SDS011;45117;50.960;5.500;2023-04-15T23:17:36;10.82;;;2.30;;
59338;SDS011;45117;50.960;5.500;2023-04-15T23:20:03;6.03;;;2.05;;
59338;SDS011;45117;50.960;5.500;2023-04-15T23:22:29;5.32;;;2.10;;
59338;SDS011;45117;50.960;5.500;2023-04-15T23:24:56;10.80;;;2.63;;
59338;SDS011;45117;50.960;5.500;2023-04-15T23:27:22;12.95;;;2.92;;
59338;SDS011;45117;50.960;5.500;2023-04-15T23:29:50;7.40;;;3.03;;
59338;SDS011;45117;50.960;5.500;2023-04-15T23:32:17;13.93;;;3.22;;
59338;SDS011;45117;50.960;5.500;2023-04-15T23:34:43;8.50;;;3.20;;
59338;SDS011;45117;50.960;5.500;2023-04-15T23:37:10;8.43;;;3.00;;
59338;SDS011;45117;50.960;5.500;2023-04-15T23:39:36;6.28;;;2.80;;
59338;SDS011;45117;50.960;5.500;2023-04-15T23:42:03;8.73;;;3.00;;
59338;SDS011;45117;50.960;5.500;2023-04-15T23:44:29;9.77;;;3.55;;
59338;SDS011;45117;50.960;5.500;2023-04-15T23:46:57;9.70;;;3.80;;
59338;SDS011;45117;50.960;5.500;2023-04-15T23:49:24;9.63;;;3.60;;
59338;SDS011;45117;50.960;5.500;2023-04-15T23:51:50;11.23;;;3.85;;
59338;SDS011;45117;50.960;5.500;2023-04-15T23:54:17;10.02;;;3.50;;
59338;SDS011;45117;50.960;5.500;2023-04-15T23:56:43;10.85;;;3.92;;
59338;SDS011;45117;50.960;5.500;2023-04-15T23:59:10;14.43;;;4.38;;
